.
WxDataArchive / Data Records for 2011-12-23
2011-12-22 December 2011 2011-12-24

Data Records for Friday, 23 December 2011

Time	Temp	Chill	HIndex	Humid	Dewpt	 Wind 	HiWind	WindDir	Rain 	Barom 
-----	----	-----	------	-----	-----	------	------	-------	-----	----- 
00:00	37.6	37.6	37.6	90	34.9	0	3	292	0.00	30.114 
00:05	37.5	37.5	37.5	90	34.8	0	2	292	0.00	30.114 
00:10	37.5	37.5	37.5	90	34.8	1	3	292	0.00	30.114 
00:15	37.3	37.3	37.3	90	34.6	1	3	292	0.00	30.118 
00:20	37.3	37.3	37.3	90	34.6	1	4	315	0.00	30.118 
00:25	37.2	37.2	37.2	90	34.5	1	3	315	0.00	30.118 
00:30	37.0	37.0	37.0	90	34.3	1	4	0	0.00	30.118 
00:35	36.9	36.9	36.9	90	34.2	1	4	315	0.00	30.118 
00:40	36.9	36.9	36.9	90	34.2	1	3	315	0.00	30.118 
00:45	36.8	36.8	36.8	89	33.9	0	2	338	0.00	30.120 
00:50	36.6	36.6	36.6	89	33.7	1	6	338	0.00	30.120 
00:55	36.5	36.5	36.5	89	33.6	1	4	270	0.00	30.120 
01:00	36.2	36.2	36.2	89	33.3	1	4	338	0.00	30.126 
01:05	36.0	36.0	36.0	88	32.8	1	5	22	0.01	30.126 
01:10	35.8	35.8	35.8	88	32.6	1	3	338	0.00	30.126 
01:15	35.6	35.6	35.6	88	32.4	1	3	292	0.00	30.126 
01:20	35.5	35.5	35.5	88	32.3	1	4	315	0.00	30.126 
01:25	35.5	35.5	35.5	88	32.3	1	3	338	0.00	30.126 
01:30	35.5	35.5	35.5	88	32.3	1	3	45	0.00	30.134 
01:35	35.5	35.5	35.5	88	32.3	1	4	338	0.00	30.134 
01:40	35.5	35.5	35.5	88	32.3	0	2	292	0.00	30.134 
01:45	35.5	35.5	35.5	88	32.3	0	2	292	0.00	30.143 
01:50	35.5	35.5	35.5	88	32.3	1	3	292	0.00	30.143 
01:55	35.5	35.5	35.5	88	32.3	1	4	270	0.00	30.143 
02:00	35.5	35.5	35.5	88	32.3	0	3	338	0.00	30.147 
02:05	35.5	35.5	35.5	88	32.3	1	3	338	0.00	30.147 
02:10	35.3	35.3	35.3	88	32.1	1	5	338	0.00	30.147 
02:15	35.3	35.3	35.3	88	32.1	2	5	270	0.00	30.156 
02:20	35.2	35.2	35.2	88	32.0	1	4	315	0.00	30.156 
02:25	35.0	35.0	35.0	88	31.8	1	4	338	0.00	30.156 
02:30	34.9	34.9	34.9	88	31.7	1	4	270	0.00	30.163 
02:35	34.7	34.7	34.7	88	31.5	1	5	315	0.00	30.163 
02:40	34.6	34.6	34.6	87	31.1	1	5	292	0.00	30.163 
02:45	34.4	34.4	34.4	87	30.9	1	5	248	0.00	30.180 
02:50	34.1	34.1	34.1	87	30.6	1	5	0	0.00	30.180 
02:55	34.1	34.1	34.1	87	30.6	2	6	22	0.00	30.180 
03:00	33.8	33.8	33.8	86	30.1	2	5	292	0.00	30.196 
03:05	33.7	33.7	33.7	86	30.0	1	3	292	0.00	30.196 
03:10	33.5	33.5	33.5	86	29.8	1	4	338	0.00	30.196 
03:15	33.4	33.4	33.4	86	29.7	1	4	315	0.00	30.202 
03:20	33.4	33.4	33.4	86	29.7	1	3	315	0.00	30.202 
03:25	33.2	33.2	33.2	86	29.5	1	3	22	0.00	30.202 
03:30	33.2	33.2	33.2	86	29.5	1	3	270	0.00	30.205 
03:35	33.2	33.2	33.2	85	29.2	1	4	0	0.00	30.205 
03:40	33.1	33.1	33.1	85	29.1	2	5	22	0.00	30.205 
03:45	33.1	33.1	33.1	84	28.8	1	3	315	0.00	30.215 
03:50	33.1	33.1	33.1	85	29.1	0	3	315	0.00	30.215 
03:55	33.1	33.1	33.1	85	29.1	0	2	0	0.00	30.215 
04:00	33.1	33.1	33.1	85	29.1	0	3	0	0.00	30.219 
04:05	32.9	32.9	32.9	85	28.9	0	3	68	0.00	30.219 
04:10	32.9	32.9	32.9	85	28.9	1	3	68	0.00	30.219 
04:15	32.9	32.9	32.9	84	28.6	1	4	315	0.00	30.220 
04:20	32.9	32.9	32.9	84	28.6	1	4	315	0.00	30.220 
04:25	32.9	32.9	32.9	84	28.6	1	4	270	0.00	30.220 
04:30	32.9	32.9	32.9	84	28.6	1	4	338	0.00	30.218 
04:35	32.9	32.9	32.9	84	28.6	1	3	0	0.00	30.218 
04:40	32.9	32.9	32.9	84	28.6	1	3	292	0.00	30.218 
04:45	32.9	32.9	32.9	85	28.9	0	2	315	0.00	30.222 
04:50	32.8	32.8	32.8	85	28.8	0	2	315	0.00	30.222 
04:55	32.8	32.8	32.8	85	28.8	0	1	315	0.00	30.222 
05:00	32.8	32.8	32.8	85	28.8	0	1	315	0.00	30.230 
05:05	32.7	32.7	32.7	85	28.7	0	2	315	0.00	30.230 
05:10	32.5	32.5	32.5	85	28.5	1	2	45	0.00	30.230 
05:15	32.5	32.5	32.5	86	28.8	1	3	45	0.00	30.234 
05:20	32.5	32.5	32.5	86	28.8	0	2	270	0.00	30.234 
05:25	32.4	32.4	32.4	86	28.7	1	6	270	0.00	30.234 
05:30	32.4	32.4	32.4	86	28.7	1	3	315	0.00	30.237 
05:35	32.1	32.1	32.1	85	28.1	1	5	315	0.00	30.237 
05:40	32.1	32.1	32.1	85	28.1	0	2	0	0.00	30.237 
05:45	31.9	31.9	31.9	85	27.9	1	5	270	0.00	30.238 
05:50	31.9	31.9	31.9	84	27.6	0	2	292	0.00	30.238 
05:55	31.9	31.9	31.9	84	27.6	0	2	315	0.00	30.238 
06:00	31.9	31.9	31.9	84	27.6	1	3	292	0.00	30.251 
06:05	31.9	31.9	31.9	84	27.6	0	2	292	0.00	30.251 
06:10	31.9	31.9	31.9	84	27.6	0	3	292	0.00	30.251 
06:15	31.9	31.9	31.9	83	27.3	1	2	292	0.00	30.251 
06:20	31.8	31.8	31.8	83	27.2	0	2	292	0.00	30.251 
06:25	31.9	31.9	31.9	83	27.3	0	1	292	0.00	30.251 
06:30	31.9	31.9	31.9	83	27.3	0	4	270	0.00	30.253 
06:35	31.8	31.8	31.8	83	27.2	0	2	22	0.00	30.253 
06:40	31.8	31.8	31.8	82	26.9	0	3	292	0.00	30.253 
06:45	31.8	31.8	31.8	82	26.9	1	3	315	0.00	30.256 
06:50	31.8	31.8	31.8	81	26.6	1	4	270	0.00	30.256 
06:55	31.6	31.6	31.6	81	26.5	1	3	315	0.00	30.256 
07:00	31.6	31.6	31.6	80	26.2	1	4	292	0.00	30.265 
07:05	31.6	31.6	31.6	80	26.2	0	2	292	0.00	30.265 
07:10	31.6	31.6	31.6	80	26.2	0	2	292	0.00	30.265 
07:15	31.5	31.5	31.5	80	26.1	0	4	292	0.00	30.273 
07:20	31.5	31.5	31.5	80	26.1	0	1	315	0.00	30.273 
07:25	31.5	31.5	31.5	80	26.1	0	3	315	0.00	30.273 
07:30	31.3	31.3	31.3	79	25.6	0	1	315	0.00	30.284 
07:35	31.3	31.3	31.3	78	25.3	1	3	270	0.00	30.284 
07:40	31.3	31.3	31.3	78	25.3	0	2	270	0.00	30.284 
07:45	31.3	31.3	31.3	77	24.9	0	2	270	0.00	30.291 
07:50	31.2	31.2	31.2	77	24.8	0	3	270	0.00	30.291 
07:55	31.2	31.2	31.2	75	24.2	0	4	270	0.00	30.291 
08:00	31.0	31.0	31.0	72	23.1	1	3	338	0.00	30.302 
08:05	31.0	31.0	31.0	71	22.7	0	2	338	0.00	30.302 
08:10	31.0	31.0	31.0	70	22.4	0	3	315	0.00	30.302 
08:15	30.9	30.9	30.9	69	21.9	0	2	315	0.00	30.302 
08:20	30.9	30.9	30.9	69	21.9	0	2	315	0.00	30.302 
08:25	30.7	30.7	30.7	68	21.4	0	2	315	0.00	30.302 
08:30	30.7	30.7	30.7	67	21.1	0	2	315	0.00	30.303 
08:35	30.6	30.6	30.6	66	20.6	0	2	315	0.00	30.303 
08:40	30.4	30.4	30.4	65	20.1	0	1	315	0.00	30.303 
08:45	30.4	30.4	30.4	65	20.1	0	2	315	0.00	30.307 
08:50	30.3	30.3	30.3	65	20.0	0	2	315	0.00	30.307 
08:55	30.1	30.1	30.1	65	19.8	0	1	315	0.00	30.307 
09:00	30.1	30.1	30.1	66	20.1	0	2	315	0.00	30.311 
09:05	30.1	30.1	30.1	66	20.1	0	0	---	0.00	30.311 
09:10	30.3	30.3	30.3	66	20.3	0	1	315	0.00	30.311 
09:15	30.4	30.4	30.4	64	19.7	1	3	315	0.00	30.320 
09:20	30.6	30.6	30.6	64	19.9	0	1	315	0.00	30.320 
09:25	30.7	30.7	30.7	64	20.0	0	2	315	0.00	30.320 
09:30	30.9	30.9	30.9	63	19.8	0	3	315	0.00	30.325 
09:35	31.0	31.0	31.0	61	19.1	1	4	270	0.00	30.325 
09:40	31.2	31.2	31.2	60	19.0	0	2	338	0.00	30.325 
09:45	31.2	31.2	31.2	59	18.6	0	2	338	0.00	30.332 
09:50	31.5	31.5	31.5	60	19.2	0	1	338	0.00	30.332 
09:55	31.6	31.6	31.6	58	18.5	1	2	338	0.00	30.332 
10:00	31.6	31.6	31.6	58	18.5	1	5	315	0.00	30.335 
10:05	31.8	31.8	31.8	57	18.3	1	5	315	0.00	30.335 
10:10	31.9	31.9	31.9	57	18.4	1	5	22	0.00	30.335 
10:15	31.8	31.8	31.8	57	18.3	2	5	270	0.00	30.343 
10:20	31.9	31.9	31.9	55	17.6	2	5	338	0.00	30.343 
10:25	32.1	32.1	32.1	56	18.2	1	4	292	0.00	30.343 
10:30	32.2	32.2	32.2	55	17.9	2	4	292	0.00	30.347 
10:35	32.2	32.2	32.2	54	17.4	2	6	248	0.00	30.347 
10:40	32.2	32.2	32.2	55	17.9	2	4	270	0.00	30.347 
10:45	32.4	32.4	32.4	55	18.1	1	4	338	0.00	30.349 
10:50	32.2	32.2	32.2	56	18.3	2	6	270	0.00	30.349 
10:55	32.5	32.5	32.5	56	18.6	2	4	270	0.00	30.349 
11:00	32.7	32.7	32.7	56	18.8	1	4	292	0.00	30.348 
11:05	32.9	32.9	32.9	56	18.9	2	4	270	0.00	30.348 
11:10	33.1	33.1	33.1	57	19.5	1	3	292	0.00	30.348 
11:15	33.2	33.2	33.2	55	18.8	1	3	0	0.00	30.350 
11:20	33.2	33.2	33.2	56	19.2	1	3	0	0.00	30.350 
11:25	33.1	33.1	33.1	56	19.1	1	3	0	0.00	30.350 
11:30	32.9	32.9	32.9	58	19.8	0	3	45	0.00	30.350 
11:35	32.8	32.8	32.8	58	19.7	0	2	135	0.00	30.350 
11:40	32.8	32.8	32.8	57	19.3	1	3	22	0.00	30.350 
11:45	32.7	32.7	32.7	56	18.8	1	3	22	0.00	30.349 
11:50	32.7	32.7	32.7	56	18.8	0	2	338	0.00	30.349 
11:55	32.9	32.9	32.9	56	18.9	1	3	45	0.00	30.349 
12:00	33.2	33.2	33.2	56	19.2	1	4	292	0.00	30.342 
12:05	33.7	33.7	33.7	56	19.7	0	2	248	0.00	30.342 
12:10	33.8	33.8	33.8	55	19.4	2	6	22	0.00	30.342 
12:15	33.8	33.8	33.8	56	19.8	0	2	315	0.00	30.332 
12:20	33.7	33.7	33.7	57	20.1	0	1	315	0.00	30.332 
12:25	33.4	33.4	33.4	56	19.4	0	1	315	0.00	30.332 
12:30	33.4	33.4	33.4	57	19.8	0	2	315	0.00	30.330 
12:35	33.4	33.4	33.4	57	19.8	0	3	90	0.00	30.330 
12:40	33.4	33.4	33.4	57	19.8	0	1	90	0.00	30.330 
12:45	33.4	33.4	33.4	57	19.8	1	5	270	0.00	30.320 
12:50	33.4	33.4	33.4	56	19.4	0	2	270	0.00	30.320 
12:55	33.4	33.4	33.4	56	19.4	1	3	270	0.00	30.320 
13:00	33.4	33.4	33.4	56	19.4	0	2	270	0.00	30.319 
13:05	33.5	33.5	33.5	64	22.6	0	2	45	0.00	30.319 
13:10	33.4	33.4	33.4	66	23.3	1	4	90	0.00	30.319 
13:15	33.4	33.4	33.4	69	24.3	1	5	90	0.00	30.310 
13:20	32.9	32.9	32.9	71	24.5	2	6	112	0.00	30.310 
13:25	32.5	32.5	32.5	71	24.2	2	4	112	0.00	30.310 
13:30	32.5	32.5	32.5	72	24.5	2	5	90	0.00	30.304 
13:35	32.4	32.4	32.4	72	24.4	1	5	90	0.00	30.304 
13:40	32.5	32.5	32.5	72	24.5	1	2	90	0.00	30.304 
13:45	32.7	32.7	32.7	72	24.7	0	2	90	0.00	30.302 
13:50	32.5	32.5	32.5	70	23.8	1	4	90	0.00	30.302 
13:55	32.4	32.4	32.4	71	24.1	1	5	90	0.00	30.302 
14:00	32.4	32.4	32.4	71	24.1	0	1	90	0.00	30.297 
14:05	32.4	32.4	32.4	70	23.7	1	4	90	0.00	30.297 
14:10	32.4	32.4	32.4	71	24.1	1	4	90	0.00	30.297 
14:15	32.4	32.4	32.4	73	24.7	1	4	90	0.00	30.292 
14:20	32.8	32.8	32.8	73	25.1	1	4	90	0.00	30.292 
14:25	32.8	32.8	32.8	72	24.8	1	5	90	0.00	30.292 
14:30	33.1	33.1	33.1	73	25.4	1	3	90	0.00	30.291 
14:35	33.5	33.5	33.5	71	25.1	1	3	90	0.00	30.291 
14:40	33.5	33.5	33.5	69	24.4	0	2	90	0.00	30.291 
14:45	33.7	33.7	33.7	56	19.7	1	4	270	0.00	30.290 
14:50	34.0	34.0	34.0	54	19.1	1	3	248	0.00	30.290 
14:55	34.0	34.0	34.0	52	18.2	1	4	248	0.00	30.290 
15:00	33.8	33.8	33.8	52	18.1	0	1	248	0.00	30.289 
15:05	33.7	33.7	33.7	53	18.4	0	2	248	0.00	30.289 
15:10	33.4	33.4	33.4	52	17.7	0	2	248	0.00	30.289 
15:15	33.1	33.1	33.1	52	17.4	0	2	248	0.00	30.288 
15:20	33.1	33.1	33.1	53	17.9	0	1	248	0.00	30.288 
15:25	33.1	33.1	33.1	54	18.3	0	2	248	0.00	30.288 
15:30	33.1	33.1	33.1	53	17.9	0	2	248	0.00	30.288 
15:35	33.1	33.1	33.1	53	17.9	1	2	248	0.00	30.288 
15:40	33.1	33.1	33.1	53	17.9	1	2	248	0.00	30.288 
15:45	33.1	33.1	33.1	54	18.3	0	2	248	0.00	30.287 
15:50	33.1	33.1	33.1	53	17.9	0	2	248	0.00	30.287 
15:55	33.1	33.1	33.1	54	18.3	0	2	248	0.00	30.287 
16:00	33.1	33.1	33.1	53	17.9	0	2	248	0.00	30.284 
16:05	33.1	33.1	33.1	53	17.9	0	1	248	0.00	30.284 
16:10	33.1	33.1	33.1	54	18.3	0	2	248	0.00	30.284 
16:15	33.1	33.1	33.1	54	18.3	0	2	248	0.00	30.287 
16:20	33.1	33.1	33.1	54	18.3	0	1	248	0.00	30.287 
16:25	33.1	33.1	33.1	54	18.3	0	1	248	0.00	30.287 
16:30	33.1	33.1	33.1	54	18.3	0	1	248	0.00	30.290 
16:35	33.1	33.1	33.1	54	18.3	0	1	248	0.00	30.290 
16:40	32.9	32.9	32.9	53	17.7	0	1	248	0.00	30.290 
16:45	32.9	32.9	32.9	53	17.7	0	0	---	0.00	30.288 
16:50	32.9	32.9	32.9	53	17.7	0	0	---	0.00	30.288 
16:55	32.9	32.9	32.9	54	18.1	0	0	---	0.00	30.288 
17:00	32.9	32.9	32.9	54	18.1	0	0	---	0.00	30.287 
17:05	32.9	32.9	32.9	56	18.9	0	0	---	0.00	30.287 
17:10	32.9	32.9	32.9	56	18.9	0	0	---	0.00	30.287 
17:15	32.9	32.9	32.9	55	18.5	0	2	248	0.00	30.288 
17:20	32.8	32.8	32.8	56	18.9	0	2	248	0.00	30.288 
17:25	32.7	32.7	32.7	57	19.2	0	1	248	0.00	30.288 
17:30	32.7	32.7	32.7	58	19.6	0	0	---	0.00	30.288 
17:35	32.5	32.5	32.5	59	19.8	0	1	248	0.00	30.288 
17:40	32.5	32.5	32.5	60	20.2	0	2	248	0.00	30.288 
17:45	32.4	32.4	32.4	62	20.9	0	1	90	0.00	30.285 
17:50	32.4	32.4	32.4	66	22.3	0	2	90	0.00	30.285 
17:55	32.2	32.2	32.2	68	22.8	0	1	90	0.00	30.285 
18:00	32.1	32.1	32.1	69	23.1	0	2	90	0.00	30.283 
18:05	31.9	31.9	31.9	70	23.2	0	2	90	0.00	30.283 
18:10	31.9	31.9	31.9	71	23.6	0	2	112	0.00	30.283 
18:15	31.8	31.8	31.8	71	23.5	0	2	112	0.00	30.283 
18:20	31.8	31.8	31.8	72	23.8	0	1	112	0.00	30.283 
18:25	31.6	31.6	31.6	73	24.0	0	1	112	0.00	30.283 
18:30	31.6	31.6	31.6	73	24.0	0	2	112	0.00	30.278 
18:35	31.6	31.6	31.6	73	24.0	0	2	68	0.00	30.278 
18:40	31.5	31.5	31.5	73	23.9	0	2	90	0.00	30.278 
18:45	31.5	31.5	31.5	73	23.9	0	2	135	0.00	30.287 
18:50	31.3	31.3	31.3	73	23.7	1	2	112	0.00	30.287 
18:55	31.3	31.3	31.3	74	24.0	1	3	112	0.00	30.287 
19:00	31.3	31.3	31.3	74	24.0	1	2	90	0.00	30.285 
19:05	31.3	31.3	31.3	75	24.3	0	2	112	0.00	30.285 
19:10	31.2	31.2	31.2	75	24.2	1	2	90	0.00	30.285 
19:15	31.2	31.2	31.2	76	24.5	0	2	90	0.00	30.279 
19:20	31.2	31.2	31.2	77	24.8	0	2	90	0.00	30.279 
19:25	31.2	31.2	31.2	77	24.8	0	2	90	0.00	30.279 
19:30	31.0	31.0	31.0	77	24.7	1	3	135	0.00	30.271 
19:35	31.0	31.0	31.0	78	25.0	0	2	112	0.00	30.271 
19:40	31.0	31.0	31.0	78	25.0	0	2	112	0.00	30.271 
19:45	31.0	31.0	31.0	78	25.0	0	2	112	0.00	30.272 
19:50	31.0	31.0	31.0	78	25.0	0	2	112	0.00	30.272 
19:55	31.0	31.0	31.0	79	25.3	0	2	112	0.00	30.272 
20:00	31.0	31.0	31.0	79	25.3	0	1	112	0.00	30.275 
20:05	31.0	31.0	31.0	78	25.0	0	2	112	0.00	30.275 
20:10	31.0	31.0	31.0	78	25.0	0	1	112	0.00	30.275 
20:15	31.2	31.2	31.2	78	25.2	0	1	112	0.00	30.274 
20:20	31.2	31.2	31.2	78	25.2	0	2	112	0.00	30.274 
20:25	31.2	31.2	31.2	78	25.2	0	1	112	0.00	30.274 
20:30	31.2	31.2	31.2	78	25.2	0	2	112	0.00	30.270 
20:35	31.2	31.2	31.2	78	25.2	0	1	112	0.00	30.270 
20:40	31.2	31.2	31.2	78	25.2	0	0	---	0.00	30.270 
20:45	31.2	31.2	31.2	78	25.2	0	0	---	0.00	30.270 
20:50	31.2	31.2	31.2	78	25.2	0	0	---	0.00	30.270 
20:55	31.0	31.0	31.0	78	25.0	0	0	---	0.00	30.270 
21:00	31.0	31.0	31.0	78	25.0	0	0	---	0.00	30.277 
21:05	31.0	31.0	31.0	78	25.0	0	0	---	0.00	30.277 
21:10	30.9	30.9	30.9	78	24.9	0	0	---	0.00	30.277 
21:15	31.0	31.0	31.0	78	25.0	0	0	---	0.00	30.274 
21:20	31.0	31.0	31.0	78	25.0	0	0	---	0.00	30.274 
21:25	31.0	31.0	31.0	78	25.0	0	0	---	0.00	30.274 
21:30	31.0	31.0	31.0	78	25.0	0	0	---	0.00	30.278 
21:35	31.2	31.2	31.2	78	25.2	0	0	---	0.00	30.278 
21:40	31.2	31.2	31.2	77	24.8	0	1	112	0.00	30.278 
21:45	31.5	31.5	31.5	77	25.1	0	3	270	0.00	30.278 
21:50	31.8	31.8	31.8	74	24.5	0	3	270	0.00	30.278 
21:55	32.1	32.1	32.1	73	24.4	0	2	270	0.00	30.278 
22:00	32.4	32.4	32.4	71	24.1	0	1	270	0.00	30.275 
22:05	32.5	32.5	32.5	71	24.2	0	1	270	0.00	30.275 
22:10	32.7	32.7	32.7	71	24.4	0	2	270	0.00	30.275 
22:15	32.8	32.8	32.8	70	24.1	1	3	270	0.00	30.273 
22:20	32.9	32.9	32.9	69	23.9	1	3	270	0.00	30.273 
22:25	32.9	32.9	32.9	70	24.2	1	3	248	0.00	30.273 
22:30	33.1	33.1	33.1	70	24.4	1	3	248	0.00	30.277 
22:35	33.1	33.1	33.1	70	24.4	0	2	248	0.00	30.277 
22:40	33.1	33.1	33.1	70	24.4	0	3	248	0.00	30.277 
22:45	33.1	33.1	33.1	71	24.7	0	2	248	0.00	30.276 
22:50	33.1	33.1	33.1	71	24.7	0	2	248	0.00	30.276 
22:55	33.1	33.1	33.1	71	24.7	1	5	248	0.00	30.276 
23:00	33.2	33.2	33.2	72	25.2	1	5	248	0.00	30.286 
23:05	33.2	33.2	33.2	72	25.2	1	4	248	0.00	30.286 
23:10	33.2	33.2	33.2	73	25.5	2	5	248	0.00	30.286 
23:15	33.2	33.2	33.2	73	25.5	0	2	248	0.00	30.276 
23:20	33.2	33.2	33.2	73	25.5	1	5	248	0.00	30.276 
23:25	33.2	33.2	33.2	73	25.5	1	3	248	0.00	30.276 
23:30	33.1	33.1	33.1	74	25.7	0	1	248	0.00	30.272 
23:35	33.1	33.1	33.1	74	25.7	0	2	248	0.00	30.272 
23:40	32.9	32.9	32.9	74	25.5	1	4	248	0.00	30.272 
23:45	32.9	32.9	32.9	75	25.9	1	3	248	0.00	30.277 
23:50	32.9	32.9	32.9	75	25.9	1	3	270	0.00	30.277 
23:55	32.9	32.9	32.9	75	25.9	1	3	270	0.00	30.277 

CoCoRaHS
IN-AL-39
A2 Web Hosting
Creative Commons License
GoDaddy
search engine by freefind advanced

loaded 2018-11-14 00:22:26 • last modified 2010-11-18 10:43:29
Privacy PolicyDisclaimer
• wx.awcolley.com is powered by PmWiki v.2002016 •
• all content (unless otherwise noted) © 2018 A W Colley